Time;durP1;ratioP1;P1;durP2;ratioP2;P2;SDS_P1;SDS_P2;PMS_P1;PMS_P2;Temp;Humidity;BMP_temperature;BMP_pressure;BME280_temperature;BME280_humidity;BME280_pressure;Samples;Min_cycle;Max_cycle;Signal;HPM_P1;HPM_P2
2021/11/05 00:02:14;;;;;;;2.10;1.00;;;;;;;9.55;58.84;99540.45;118826;1176;21865;-77
2021/11/05 00:04:42;;;;;;;1.40;0.90;;;;;;;9.53;58.82;99544.33;118883;1176;24141;-78
2021/11/05 00:07:10;;;;;;;1.50;1.00;;;;;;;9.51;58.82;99550.55;118591;1177;21944;-77
2021/11/05 00:09:41;;;;;;;2.60;1.00;;;;;;;9.51;58.89;99558.20;118774;1173;21880;-77
2021/11/05 00:12:23;;;;;;;3.80;1.10;;;;;;;9.50;58.91;99554.61;119125;1170;21861;-77
2021/11/05 00:14:55;;;;;;;1.50;0.80;;;;;;;9.48;58.95;99566.73;118980;1174;21871;-77
2021/11/05 00:17:23;;;;;;;1.20;0.60;;;;;;;9.50;59.02;99569.48;118810;1174;23513;-77
2021/11/05 00:19:51;;;;;;;2.20;0.90;;;;;;;9.52;59.08;99570.84;118526;1176;22908;-77
2021/11/05 00:22:19;;;;;;;3.70;1.10;;;;;;;9.54;59.09;99575.94;118423;1164;22892;-77
2021/11/05 00:24:48;;;;;;;1.90;0.70;;;;;;;9.52;59.14;99580.33;118484;1177;23586;-77
2021/11/05 00:27:19;;;;;;;1.00;0.60;;;;;;;9.52;59.05;99585.14;118490;1176;21910;-77
2021/11/05 00:29:48;;;;;;;;;;;;;;;9.50;59.15;99584.96;118125;1180;21870;-77
2021/11/05 00:32:28;;;;;;;2.30;0.80;;;;;;;9.43;59.23;99584.93;118243;1179;23514;-77
2021/11/05 00:35:04;;;;;;;2.00;0.90;;;;;;;9.39;59.50;99597.09;117846;1182;24140;-77
2021/11/05 00:37:32;;;;;;;1.00;0.60;;;;;;;9.40;59.49;99601.20;117868;1182;23636;-76
2021/11/05 00:40:09;;;;;;;1.70;0.70;;;;;;;9.43;59.49;99606.20;117876;1179;21877;-77
2021/11/05 00:42:37;;;;;;;6.90;1.20;;;;;;;9.45;59.45;99615.83;117985;1181;21870;-77
2021/11/05 00:45:09;;;;;;;1.30;0.70;;;;;;;9.47;59.57;99619.75;118177;1178;21887;-77
2021/11/05 00:47:37;;;;;;;1.60;0.50;;;;;;;9.47;59.56;99624.20;118479;1174;21847;-76
2021/11/05 00:50:12;;;;;;;1.30;0.80;;;;;;;9.45;59.61;99624.79;118453;1177;23343;-77
2021/11/05 00:52:44;;;;;;;0.70;0.50;;;;;;;9.42;59.64;99630.14;118340;1177;21863;-76
2021/11/05 00:55:14;;;;;;;1.00;0.80;;;;;;;9.40;59.85;99634.77;118669;1177;22637;-76
2021/11/05 00:57:43;;;;;;;1.50;0.60;;;;;;;9.40;59.89;99636.19;118664;1177;22189;-76
2021/11/05 01:00:14;;;;;;;1.00;0.60;;;;;;;9.41;60.01;99639.94;118507;1177;21897;-76
2021/11/05 01:02:44;;;;;;;1.60;0.90;;;;;;;9.40;60.02;99638.67;118684;1177;22604;-76
2021/11/05 01:05:16;;;;;;;2.20;1.00;;;;;;;9.41;60.12;99648.17;118282;1172;22340;-77
2021/11/05 01:07:44;;;;;;;1.10;0.80;;;;;;;9.44;60.15;99644.16;118229;1177;21858;-77
2021/11/05 01:10:13;;;;;;;1.10;0.80;;;;;;;9.45;60.06;99649.02;118214;1176;23449;-77
2021/11/05 01:12:41;;;;;;;2.40;1.00;;;;;;;9.45;60.22;99652.58;118681;1176;22911;-77
2021/11/05 01:15:11;;;;;;;1.70;0.80;;;;;;;9.46;60.31;99656.80;118519;1176;21889;-77
2021/11/05 01:17:43;;;;;;;3.40;1.40;;;;;;;9.50;60.35;99660.16;118527;1171;22896;-77
2021/11/05 01:20:17;;;;;;;1.30;0.80;;;;;;;9.53;60.23;99658.59;118502;1177;23589;-76
2021/11/05 01:22:48;;;;;;;2.50;0.90;;;;;;;9.53;60.20;99661.10;118497;1174;21896;-77
2021/11/05 01:25:17;;;;;;;1.50;1.10;;;;;;;9.54;60.29;99665.54;118390;1176;21881;-77
2021/11/05 01:27:49;;;;;;;1.90;1.00;;;;;;;9.54;60.20;99673.41;118693;1176;24117;-77
2021/11/05 01:30:21;;;;;;;1.40;0.90;;;;;;;9.52;60.21;99668.59;118415;1176;23775;-77
2021/11/05 01:32:49;;;;;;;1.90;1.10;;;;;;;9.50;60.12;99669.37;118214;1179;22064;-75
2021/11/05 01:35:18;;;;;;;2.60;0.90;;;;;;;9.48;60.10;99676.80;118138;1178;21896;-75
2021/11/05 01:37:46;;;;;;;1.80;1.10;;;;;;;9.46;60.00;99674.90;118285;1178;21881;-76
2021/11/05 01:40:18;;;;;;;1.10;0.90;;;;;;;9.48;60.06;99686.27;118293;1178;22750;-76
2021/11/05 01:42:49;;;;;;;1.80;1.00;;;;;;;9.51;59.95;99687.48;118296;1178;23101;-76
2021/11/05 01:45:22;;;;;;;3.20;1.00;;;;;;;9.52;59.83;99691.63;118309;1178;21874;-76
2021/11/05 01:47:50;;;;;;;2.30;1.00;;;;;;;9.55;59.78;99698.34;118282;1176;22902;-76
2021/11/05 01:50:19;;;;;;;1.00;0.80;;;;;;;9.56;59.81;99703.95;118365;1174;21870;-76
2021/11/05 01:52:48;;;;;;;3.20;1.00;;;;;;;9.58;59.79;99708.36;118266;1176;23446;-76
2021/11/05 01:55:17;;;;;;;1.40;0.80;;;;;;;9.59;59.79;99705.27;118740;1176;21878;-76
2021/11/05 01:57:49;;;;;;;1.20;0.80;;;;;;;9.58;59.64;99708.45;118283;1177;22146;-76
2021/11/05 02:00:26;;;;;;;1.20;0.90;;;;;;;9.57;59.62;99707.17;118298;1175;23537;-76
2021/11/05 02:02:54;;;;;;;2.40;1.00;;;;;;;9.56;59.54;99716.80;118180;1176;22062;-78
2021/11/05 02:05:23;;;;;;;1.30;0.80;;;;;;;9.54;59.59;99712.35;118347;1178;21922;-75
2021/11/05 02:07:57;;;;;;;1.70;1.00;;;;;;;9.53;59.69;99714.85;118357;1175;21880;-78
2021/11/05 02:10:28;;;;;;;1.50;1.10;;;;;;;9.53;59.62;99717.69;118663;1173;23414;-76
2021/11/05 02:12:57;;;;;;;1.60;1.10;;;;;;;9.52;59.50;99723.73;118389;1176;21884;-76
2021/11/05 02:15:26;;;;;;;2.50;0.90;;;;;;;9.54;59.56;99725.86;118218;1175;21859;-76
2021/11/05 02:17:54;;;;;;;3.20;1.00;;;;;;;9.55;59.57;99723.58;118852;1175;21902;-77
2021/11/05 02:20:27;;;;;;;1.80;1.40;;;;;;;9.56;59.61;99726.11;118857;1174;23513;-76
2021/11/05 02:22:56;;;;;;;2.30;1.10;;;;;;;9.59;59.64;99720.14;118810;1174;21908;-75
2021/11/05 02:25:24;;;;;;;0.90;0.60;;;;;;;9.60;59.57;99723.56;118421;1178;21870;-76
2021/11/05 02:27:55;;;;;;;2.00;1.10;;;;;;;9.58;59.67;99732.02;118234;1178;22639;-76
2021/11/05 02:30:26;;;;;;;3.40;1.40;;;;;;;9.56;59.73;99732.96;118387;1175;22944;-76
2021/11/05 02:32:59;;;;;;;1.20;0.90;;;;;;;9.56;59.82;99734.67;118270;1178;21869;-76
2021/11/05 02:35:28;;;;;;;1.50;1.10;;;;;;;9.57;59.76;99733.02;118238;1178;22343;-76
2021/11/05 02:38:02;;;;;;;1.50;0.80;;;;;;;9.56;59.73;99736.16;118401;1177;21884;-76
2021/11/05 02:40:35;;;;;;;1.20;0.90;;;;;;;9.54;59.74;99736.87;118375;1175;21898;-76
2021/11/05 02:43:04;;;;;;;1.30;1.00;;;;;;;9.53;59.71;99745.44;118409;1174;21897;-76
2021/11/05 02:45:32;;;;;;;1.40;1.30;;;;;;;9.52;59.85;99746.59;119014;1170;22893;-76
2021/11/05 02:48:05;;;;;;;1.80;1.50;;;;;;;9.52;59.81;99745.88;118731;1174;23538;-77
2021/11/05 02:50:33;;;;;;;1.50;1.20;;;;;;;9.55;59.90;99746.48;118810;1171;21864;-76
2021/11/05 02:53:04;;;;;;;2.00;1.40;;;;;;;9.57;59.94;99749.52;119218;1170;21882;-76
2021/11/05 02:55:32;;;;;;;5.30;1.40;;;;;;;9.58;59.91;99754.88;119060;1157;22394;-76
2021/11/05 02:58:00;;;;;;;1.50;1.30;;;;;;;9.59;59.97;99761.48;119255;1170;22983;-76
2021/11/05 03:00:28;;;;;;;2.00;1.50;;;;;;;9.57;60.00;99764.86;119105;1171;22807;-77
2021/11/05 03:02:59;;;;;;;2.00;1.50;;;;;;;9.55;60.08;99767.88;119419;1170;23504;-76
2021/11/05 03:05:27;;;;;;;3.10;1.50;;;;;;;9.54;60.13;99775.89;119155;1170;21846;-76
2021/11/05 03:07:55;;;;;;;2.90;1.90;;;;;;;9.53;60.13;99777.24;119229;1171;22887;-76
2021/11/05 03:10:25;;;;;;;2.30;1.30;;;;;;;9.53;60.18;99778.34;119272;1167;23646;-76
2021/11/05 03:12:53;;;;;;;2.30;1.60;;;;;;;9.54;60.29;99782.42;119170;1170;23863;-76
2021/11/05 03:15:21;;;;;;;3.90;1.50;;;;;;;9.56;60.21;99782.77;119257;1170;23523;-77
2021/11/05 03:17:50;;;;;;;2.00;1.70;;;;;;;9.58;60.25;99784.92;119143;1172;21867;-77
2021/11/05 03:20:20;;;;;;;1.90;1.70;;;;;;;9.60;60.29;99788.77;119282;1168;22881;-76
2021/11/05 03:22:51;;;;;;;2.30;1.60;;;;;;;9.59;60.24;99795.59;119251;1170;21852;-76
2021/11/05 03:25:19;;;;;;;2.90;1.70;;;;;;;9.56;60.25;99803.30;119271;1169;22843;-76
2021/11/05 03:27:50;;;;;;;2.70;2.00;;;;;;;9.54;60.15;99810.05;119018;1171;21873;-76
2021/11/05 03:30:21;;;;;;;1.40;1.20;;;;;;;9.51;60.12;99810.58;118921;1171;23528;-77
2021/11/05 03:32:49;;;;;;;2.20;1.50;;;;;;;9.49;60.24;99812.01;118906;1173;23436;-77
2021/11/05 03:35:25;;;;;;;2.40;2.00;;;;;;;9.50;60.27;99813.77;118972;1173;21877;-77
2021/11/05 03:37:58;;;;;;;1.80;1.50;;;;;;;9.52;60.38;99815.52;118718;1176;21891;-77
2021/11/05 03:40:28;;;;;;;2.00;1.60;;;;;;;9.56;60.35;99818.42;118755;1176;23003;-77
2021/11/05 03:42:56;;;;;;;3.10;1.70;;;;;;;9.56;60.33;99820.19;118320;1179;22632;-77
2021/11/05 03:45:27;;;;;;;2.50;1.90;;;;;;;9.56;60.37;99825.05;118228;1177;22894;-77
2021/11/05 03:47:55;;;;;;;2.40;1.70;;;;;;;9.54;60.29;99827.96;118273;1179;21866;-75
2021/11/05 03:50:23;;;;;;;2.50;2.10;;;;;;;9.53;60.27;99833.90;118190;1179;21865;-75
2021/11/05 03:52:51;;;;;;;2.30;1.90;;;;;;;9.51;60.23;99838.14;117955;1177;24156;-75
2021/11/05 03:55:20;;;;;;;1.90;1.70;;;;;;;9.49;60.21;99839.77;117986;1176;22748;-76
2021/11/05 03:57:49;;;;;;;3.10;1.90;;;;;;;9.47;60.20;99839.96;118684;1173;23601;-76
2021/11/05 04:00:21;;;;;;;2.30;1.80;;;;;;;9.47;60.29;99839.67;118595;1175;21870;-76
2021/11/05 04:02:49;;;;;;;2.20;1.60;;;;;;;9.49;60.34;99841.15;118819;1173;21887;-77
2021/11/05 04:05:18;;;;;;;1.60;1.30;;;;;;;9.52;60.23;99844.00;118901;1170;21904;-76
2021/11/05 04:07:48;;;;;;;2.20;1.60;;;;;;;9.54;60.23;99848.93;119220;1170;24189;-77
2021/11/05 04:10:19;;;;;;;3.10;1.90;;;;;;;9.53;60.14;99857.81;119243;1168;24155;-77
2021/11/05 04:12:48;;;;;;;2.00;1.80;;;;;;;9.51;60.23;99859.52;119241;1170;21872;-77
2021/11/05 04:15:18;;;;;;;3.30;1.60;;;;;;;9.50;60.14;99866.06;118587;1176;21868;-78
2021/11/05 04:17:53;;;;;;;2.00;1.70;;;;;;;9.46;60.22;99870.16;118767;1175;21881;-79
2021/11/05 04:20:24;;;;;;;2.80;1.90;;;;;;;9.43;60.18;99872.95;118687;1174;22175;-79
2021/11/05 04:22:57;;;;;;;2.80;2.10;;;;;;;9.43;60.38;99876.23;118730;1174;23531;-79
2021/11/05 04:25:29;;;;;;;3.40;2.20;;;;;;;9.46;60.33;99875.63;118861;1174;22664;-78
2021/11/05 04:28:03;;;;;;;2.20;1.90;;;;;;;9.47;60.39;99876.42;118850;1174;22807;-79
2021/11/05 04:30:36;;;;;;;2.60;2.40;;;;;;;9.47;60.43;99882.68;118359;1178;22893;-78
2021/11/05 04:33:10;;;;;;;2.40;2.10;;;;;;;9.50;60.45;99886.83;118184;1176;21876;-77
2021/11/05 04:35:42;;;;;;;;;;;;;;;9.50;60.49;99892.63;118829;1175;21887;-77
2021/11/05 04:38:17;;;;;;;4.60;2.20;;;;;;;9.43;60.58;99895.78;118876;1171;21950;-77
2021/11/05 04:40:47;;;;;;;3.70;2.70;;;;;;;9.42;60.73;99898.91;118845;1175;21877;-76
2021/11/05 04:43:15;;;;;;;2.60;2.10;;;;;;;9.43;60.74;99900.33;118773;1176;21867;-76
2021/11/05 04:45:44;;;;;;;2.90;2.40;;;;;;;9.43;60.72;99899.70;118155;1177;22638;-77
2021/11/05 04:48:14;;;;;;;2.50;2.20;;;;;;;9.42;60.80;99910.33;118270;1176;21878;-77
2021/11/05 04:50:45;;;;;;;2.30;2.00;;;;;;;9.41;60.79;99914.85;118309;1178;23535;-77
2021/11/05 04:53:16;;;;;;;2.70;2.40;;;;;;;9.40;60.87;99917.38;118206;1178;24553;-77
2021/11/05 04:55:44;;;;;;;2.40;2.10;;;;;;;9.41;61.03;99920.92;118306;1178;22926;-77
2021/11/05 04:58:13;;;;;;;3.00;2.50;;;;;;;9.45;61.01;99926.19;118273;1178;23966;-77
2021/11/05 05:00:41;;;;;;;3.20;2.70;;;;;;;9.46;61.02;99928.00;118292;1178;22642;-77
2021/11/05 05:03:12;;;;;;;3.00;2.70;;;;;;;9.44;61.06;99932.23;118327;1176;23659;-77
2021/11/05 05:05:43;;;;;;;3.10;2.50;;;;;;;9.42;61.11;99932.92;118598;1173;22102;-77
2021/11/05 05:08:11;;;;;;;3.10;2.60;;;;;;;9.42;61.10;99934.90;118836;1170;22801;-77
2021/11/05 05:10:42;;;;;;;4.10;2.90;;;;;;;9.39;61.19;99936.64;119264;1169;23575;-77
2021/11/05 05:13:23;;;;;;;3.30;2.80;;;;;;;9.38;61.29;99949.95;119104;1159;21968;-78
2021/11/05 05:16:35;;;;;;;6.70;3.20;;;;;;;9.37;61.37;99960.20;119260;1171;21856;-77
2021/11/05 05:19:06;;;;;;;3.40;2.80;;;;;;;9.37;61.29;99961.52;119236;1170;21893;-78
2021/11/05 05:22:21;;;;;;;;;;;;;;;;;;;;;
2021/11/05 05:26:17;;;;;;;;;;;;;;;;;;;;;
2021/11/05 05:29:33;;;;;;;3.10;2.60;;;;;;;9.28;61.80;99970.44;118567;1177;21983;-77
2021/11/05 05:33:01;;;;;;;3.70;2.80;;;;;;;9.23;61.88;99976.70;117628;1184;22919;-76
2021/11/05 05:36:19;;;;;;;3.80;2.70;;;;;;;9.24;62.05;99980.23;117695;1183;24724;-77
2021/11/05 05:39:48;;;;;;;2.90;2.50;;;;;;;9.24;62.04;99987.92;117472;1183;22393;-76
2021/11/05 05:42:39;;;;;;;;;;;;;;;;;;;;;
2021/11/05 05:46:32;;;;;;;;;;;;;;;;;;;;;
2021/11/05 05:49:59;;;;;;;4.80;3.50;;;;;;;9.24;62.23;99999.80;117526;1181;23988;-76
2021/11/05 05:52:27;;;;;;;3.90;3.30;;;;;;;9.25;62.24;100005.19;117676;1181;21912;-77
2021/11/05 05:55:17;;;;;;;;;;;;;;;;;;;;;
2021/11/05 05:58:23;;;;;;;6.50;3.30;;;;;;;9.26;62.16;100018.21;117963;1181;21866;-77
2021/11/05 06:01:51;;;;;;;4.90;4.00;;;;;;;9.27;62.41;100029.78;117685;1183;21869;-78
2021/11/05 06:04:53;;;;;;;4.40;3.60;;;;;;;9.27;62.28;100034.45;117944;1181;21946;-76
2021/11/05 06:07:49;;;;;;;4.20;3.40;;;;;;;9.27;62.39;100046.57;117760;1183;21904;-77
2021/11/05 06:10:18;;;;;;;4.30;3.90;;;;;;;9.30;62.40;100051.22;117796;1167;22884;-77
2021/11/05 06:12:46;;;;;;;4.40;3.40;;;;;;;9.35;62.68;100055.40;118120;1178;22986;-77
2021/11/05 06:15:14;;;;;;;3.90;3.50;;;;;;;9.39;62.56;100058.98;117976;1177;22586;-77
2021/11/05 06:17:44;;;;;;;5.00;4.10;;;;;;;9.38;62.37;100062.61;117924;1181;21878;-78
2021/11/05 06:20:20;;;;;;;5.70;4.70;;;;;;;9.34;62.30;100064.62;118248;1177;22864;-78
2021/11/05 06:23:16;;;;;;;7.00;5.20;;;;;;;9.32;62.47;100068.41;118281;1179;23542;-78
2021/11/05 06:25:51;;;;;;;7.80;6.00;;;;;;;9.30;62.57;100073.98;118399;1176;22756;-76
2021/11/05 06:28:46;;;;;;;8.10;6.10;;;;;;;9.31;62.65;100082.48;118685;1176;21876;-77
2021/11/05 06:31:20;;;;;;;7.40;5.40;;;;;;;9.33;62.68;100086.30;118579;1176;21864;-78
2021/11/05 06:33:49;;;;;;;7.40;6.60;;;;;;;9.37;62.94;100089.43;118317;1178;23423;-77
2021/11/05 06:36:20;;;;;;;7.10;4.60;;;;;;;9.43;62.97;100091.20;118389;1176;22214;-77
2021/11/05 06:38:55;;;;;;;7.90;5.70;;;;;;;9.45;62.98;100100.54;118152;1179;23724;-78
2021/11/05 06:41:46;;;;;;;8.10;6.00;;;;;;;9.45;62.86;100105.11;118405;1177;21864;-76
2021/11/05 06:44:20;;;;;;;12.50;7.40;;;;;;;9.44;62.92;100106.77;118330;1176;21972;-78
2021/11/05 06:46:51;;;;;;;12.50;9.00;;;;;;;9.45;63.00;100110.36;118429;1176;21893;-77
2021/11/05 06:49:21;;;;;;;8.80;7.00;;;;;;;9.44;63.04;100112.20;118462;1176;21865;-77
2021/11/05 06:51:54;;;;;;;7.30;5.00;;;;;;;9.47;63.07;100111.21;118597;1174;22134;-78
2021/11/05 06:54:23;;;;;;;4.80;4.30;;;;;;;9.49;62.99;100114.02;118820;1176;21955;-76
2021/11/05 06:57:01;;;;;;;;;;;;;;;9.49;62.99;100109.23;119042;1171;23420;-76
2021/11/05 06:59:54;;;;;;;6.20;4.70;;;;;;;9.41;63.07;100121.86;118836;1174;23413;-77
2021/11/05 07:02:25;;;;;;;7.90;5.20;;;;;;;9.43;63.19;100123.94;118810;1170;21878;-77
2021/11/05 07:05:24;;;;;;;6.10;5.50;;;;;;;9.48;63.20;100132.20;118911;1174;23412;-76
2021/11/05 07:08:44;;;;;;;6.60;5.00;;;;;;;9.54;63.25;100141.96;118799;1175;21889;-77
2021/11/05 07:11:44;;;;;;;;;;;;;;;;;;;;;
2021/11/05 07:14:40;;;;;;;7.20;6.40;;;;;;;9.61;63.19;100158.73;118828;1174;22114;-77
2021/11/05 07:17:19;;;;;;;9.00;5.40;;;;;;;9.66;62.95;100167.92;118560;1177;23463;-77
2021/11/05 07:20:08;;;;;;;;;;;;;;;;;;;;;
2021/11/05 07:23:50;;;;;;;7.90;6.00;;;;;;;9.70;62.87;100185.05;118082;1179;21898;-77
2021/11/05 07:27:04;;;;;;;9.20;6.10;;;;;;;9.72;63.15;100199.88;118258;1176;22589;-77
2021/11/05 07:30:15;;;;;;;;;;;;;;;;;;;;;
2021/11/05 07:33:16;;;;;;;9.60;8.40;;;;;;;9.74;63.38;100222.98;118725;1176;22838;-77
2021/11/05 07:36:14;;;;;;;10.70;8.90;;;;;;;9.75;63.53;100233.80;118785;1176;21878;-77
2021/11/05 07:39:18;;;;;;;10.70;7.90;;;;;;;9.73;63.71;100243.79;118904;1174;21874;-77
2021/11/05 07:46:50;;;;;;;;;;;;;;;;;;;;;
2021/11/05 07:50:00;;;;;;;;;;;;;;;;;;;;;
2021/11/05 07:53:57;;;;;;;6.60;5.50;;;;;;;9.41;65.17;100270.55;118039;1179;22897;-77
2021/11/05 07:57:01;;;;;;;9.40;6.10;;;;;;;9.36;65.53;100284.13;117128;1188;21895;-77
2021/11/05 07:59:33;;;;;;;11.20;6.50;;;;;;;9.35;65.83;100287.03;116953;1190;21882;-76
2021/11/05 08:02:13;;;;;;;6.90;4.20;;;;;;;9.37;66.01;100288.78;116946;1188;24902;-76
2021/11/05 08:05:08;;;;;;;4.80;3.40;;;;;;;9.37;66.20;100293.19;116826;1191;23474;-77
2021/11/05 08:07:41;;;;;;;4.10;3.10;;;;;;;9.37;66.34;100294.17;116862;1189;21891;-78
2021/11/05 08:10:09;;;;;;;6.40;3.90;;;;;;;9.39;66.45;100299.27;116941;1187;21887;-80
2021/11/05 08:13:07;;;;;;;5.80;3.70;;;;;;;9.40;66.58;100302.46;117754;1186;22774;-79
2021/11/05 08:15:44;;;;;;;8.00;5.40;;;;;;;9.41;66.68;100305.70;117550;1186;23658;-81
2021/11/05 08:18:16;;;;;;;6.30;4.30;;;;;;;9.41;66.62;100306.55;117894;1181;21874;-80
2021/11/05 08:20:45;;;;;;;8.20;4.20;;;;;;;9.46;66.85;100314.90;117668;1183;22851;-80
2021/11/05 08:23:13;;;;;;;6.80;3.90;;;;;;;9.52;67.09;100315.48;117934;1180;23544;-80
2021/11/05 08:25:51;;;;;;;6.50;3.60;;;;;;;9.60;67.21;100315.69;118008;1180;21875;-80
2021/11/05 08:28:29;;;;;;;6.00;4.40;;;;;;;9.69;67.20;100316.34;118422;1178;22443;-80
2021/11/05 08:30:57;;;;;;;9.40;4.30;;;;;;;9.74;66.90;100319.14;118402;1170;21880;-80
2021/11/05 08:33:25;;;;;;;6.00;3.80;;;;;;;9.77;66.75;100324.98;118308;1178;23710;-80
2021/11/05 08:35:54;;;;;;;4.30;3.20;;;;;;;9.80;66.71;100324.96;118578;1178;22834;-80
2021/11/05 08:38:27;;;;;;;4.40;2.60;;;;;;;9.82;66.44;100332.02;118436;1176;21910;-80
2021/11/05 08:41:28;;;;;;;;;;;;;;;;;;;;;
2021/11/05 08:44:33;;;;;;;;;;;;;;;;;;;;;
2021/11/05 08:47:40;;;;;;;;;;;;;;;;;;;;;
2021/11/05 08:50:19;;;;;;;4.30;2.80;;;;;;;9.86;66.45;100352.33;118509;1176;24170;-79
2021/11/05 08:52:51;;;;;;;6.10;4.10;;;;;;;9.87;66.32;100353.02;118865;1173;22010;-80
2021/11/05 08:55:37;;;;;;;7.50;4.30;;;;;;;9.87;66.08;100361.03;118898;1176;22002;-80
2021/11/05 08:58:10;;;;;;;7.90;4.90;;;;;;;9.87;66.17;100370.10;118811;1175;22080;-80
2021/11/05 09:00:44;;;;;;;5.90;4.10;;;;;;;9.88;66.35;100373.88;118966;1175;22832;-80
2021/11/05 09:03:39;;;;;;;6.60;3.60;;;;;;;9.93;66.44;100373.09;118921;1175;22192;-82
2021/11/05 09:06:09;;;;;;;8.90;4.90;;;;;;;9.94;66.25;100383.48;118397;1179;21863;-79
2021/11/05 09:08:47;;;;;;;6.80;5.20;;;;;;;9.92;66.08;100385.13;118330;1179;23578;-79
2021/11/05 09:11:16;;;;;;;6.10;4.20;;;;;;;9.87;66.01;100396.52;118296;1179;24286;-79
2021/11/05 09:13:53;;;;;;;5.30;3.10;;;;;;;9.89;66.26;100400.84;118314;1179;23607;-82
2021/11/05 09:16:29;;;;;;;4.80;3.60;;;;;;;9.92;66.22;100408.35;118119;1180;21882;-79
2021/11/05 09:19:08;;;;;;;7.20;3.70;;;;;;;9.98;66.37;100418.09;117992;1180;21912;-81
2021/11/05 09:21:42;;;;;;;6.80;4.60;;;;;;;10.01;66.06;100424.46;118140;1180;22867;-79
2021/11/05 09:24:38;;;;;;;5.80;4.00;;;;;;;10.03;65.89;100428.33;117923;1180;21878;-78
2021/11/05 09:27:11;;;;;;;5.30;3.70;;;;;;;10.02;65.82;100436.50;118106;1179;22195;-79
2021/11/05 09:29:46;;;;;;;55.10;21.70;;;;;;;10.01;65.69;100443.27;117892;1182;21891;-80
2021/11/05 09:32:17;;;;;;;76.20;31.90;;;;;;;9.97;65.35;100446.56;117840;1181;22829;-79
2021/11/05 09:34:49;;;;;;;;;;;;;;;9.95;65.56;100451.01;117986;1181;23054;-80
2021/11/05 09:37:26;;;;;;;54.70;34.10;;;;;;;9.87;65.79;100453.89;118027;1181;21885;-79
2021/11/05 09:39:57;;;;;;;22.20;14.10;;;;;;;9.85;65.96;100453.68;118116;1177;22896;-79
2021/11/05 09:42:30;;;;;;;12.70;6.80;;;;;;;9.90;65.98;100454.25;118163;1170;21882;-79
2021/11/05 09:44:59;;;;;;;8.50;5.40;;;;;;;9.96;65.89;100455.26;118750;1174;22767;-80
2021/11/05 09:47:28;;;;;;;11.50;8.30;;;;;;;10.01;66.02;100458.93;118947;1164;22884;-79
2021/11/05 09:49:57;;;;;;;7.20;5.50;;;;;;;10.09;66.05;100461.04;119022;1173;23671;-79
2021/11/05 09:52:29;;;;;;;6.20;4.90;;;;;;;10.15;65.89;100464.80;119181;1173;22885;-79
2021/11/05 09:55:08;;;;;;;6.50;4.70;;;;;;;10.18;65.60;100462.96;119051;1168;21850;-79
2021/11/05 09:57:39;;;;;;;6.10;4.10;;;;;;;10.20;65.45;100471.33;119038;1173;21883;-78
2021/11/05 10:00:20;;;;;;;3.90;3.00;;;;;;;10.17;64.98;100478.20;119024;1173;21877;-79
2021/11/05 10:02:51;;;;;;;6.10;4.40;;;;;;;10.10;64.82;100480.70;118999;1173;22885;-79
2021/11/05 10:05:33;;;;;;;5.30;3.30;;;;;;;10.03;64.82;100486.91;118966;1174;21840;-78
2021/11/05 10:08:24;;;;;;;5.60;3.60;;;;;;;9.98;64.89;100485.48;118977;1173;21893;-79
2021/11/05 10:10:55;;;;;;;4.90;3.60;;;;;;;9.92;64.62;100488.86;119021;1173;22109;-78
2021/11/05 10:13:25;;;;;;;5.20;2.90;;;;;;;9.87;64.88;100493.39;118979;1168;21871;-79
2021/11/05 10:15:57;;;;;;;4.00;3.10;;;;;;;9.89;65.14;100489.67;118955;1171;21889;-79
2021/11/05 10:18:38;;;;;;;4.50;3.70;;;;;;;9.92;65.18;100492.02;119195;1173;23597;-79
2021/11/05 10:21:15;;;;;;;9.60;8.00;;;;;;;9.94;65.12;100493.45;118996;1173;23663;-78
2021/11/05 10:23:47;;;;;;;5.00;4.20;;;;;;;9.92;64.92;100493.33;119244;1173;22887;-79
2021/11/05 10:26:35;;;;;;;8.00;6.30;;;;;;;9.91;65.19;100495.73;119029;1173;22187;-80
2021/11/05 10:29:30;;;;;;;11.30;9.10;;;;;;;9.90;65.34;100497.03;119069;1173;21947;-80
2021/11/05 10:32:09;;;;;;;14.20;10.90;;;;;;;9.86;65.44;100497.75;118845;1174;21931;-79
2021/11/05 10:34:52;;;;;;;5.20;4.50;;;;;;;9.89;65.85;100506.08;119043;1173;21868;-79
2021/11/05 10:37:36;;;;;;;7.70;6.70;;;;;;;9.95;65.83;100506.39;119192;1173;22088;-79
2021/11/05 10:40:23;;;;;;;8.30;6.40;;;;;;;10.03;66.23;100502.36;119219;1174;22020;-78
2021/11/05 10:42:52;;;;;;;6.50;5.30;;;;;;;10.15;66.46;100504.27;118947;1173;23518;-79
2021/11/05 10:45:26;;;;;;;20.50;14.90;;;;;;;10.25;66.16;100509.40;119256;1173;22130;-78
2021/11/05 10:48:12;;;;;;;9.00;8.00;;;;;;;10.32;65.99;100510.98;119040;1173;21876;-78
2021/11/05 10:50:59;;;;;;;5.90;4.50;;;;;;;10.40;65.81;100512.80;119089;1173;22900;-76
2021/11/05 10:53:40;;;;;;;6.90;4.90;;;;;;;10.45;65.68;100521.92;119397;1173;21859;-78
2021/11/05 10:56:18;;;;;;;5.10;3.90;;;;;;;10.46;65.14;100520.01;119078;1171;21857;-79
2021/11/05 10:59:03;;;;;;;7.00;4.70;;;;;;;10.44;65.05;100525.20;119070;1173;22271;-79
2021/11/05 11:01:37;;;;;;;5.40;4.20;;;;;;;10.44;64.85;100525.55;119186;1173;21860;-79
2021/11/05 11:04:29;;;;;;;6.40;4.30;;;;;;;10.41;64.71;100526.38;119200;1170;24105;-79
2021/11/05 11:07:07;;;;;;;10.70;6.30;;;;;;;10.35;64.52;100522.14;118957;1174;21925;-79
2021/11/05 11:09:38;;;;;;;10.50;6.80;;;;;;;10.30;64.61;100521.30;119065;1173;21883;-79
2021/11/05 11:12:08;;;;;;;6.10;5.00;;;;;;;10.32;64.65;100522.20;119177;1173;23529;-79
2021/11/05 11:14:43;;;;;;;6.70;6.00;;;;;;;10.33;64.52;100522.27;119167;1173;21868;-80
2021/11/05 11:17:18;;;;;;;7.60;6.70;;;;;;;10.39;64.82;100526.48;119217;1173;21844;-79
2021/11/05 11:19:51;;;;;;;6.90;5.40;;;;;;;10.46;64.84;100523.75;119067;1173;23440;-79
2021/11/05 11:23:19;;;;;;;8.80;6.10;;;;;;;10.51;64.63;100523.88;119033;1173;21962;-79
2021/11/05 11:25:50;;;;;;;;;;;;;;;10.51;64.16;100528.52;118948;1173;21927;-77
2021/11/05 11:28:20;;;;;;;7.30;5.50;;;;;;;10.45;64.22;100529.70;118903;1175;22962;-78
2021/11/05 11:30:53;;;;;;;7.40;5.00;;;;;;;10.46;64.29;100532.89;118799;1176;22848;-78
2021/11/05 11:33:44;;;;;;;6.30;4.80;;;;;;;10.53;64.34;100535.66;118981;1178;21883;-79
2021/11/05 11:36:17;;;;;;;;;;;;;;;10.51;63.83;100537.09;118231;1179;22594;-79
2021/11/05 11:38:58;;;;;;;7.90;6.60;;;;;;;10.43;64.16;100541.80;118319;1179;21861;-78
2021/11/05 11:41:32;;;;;;;7.10;5.60;;;;;;;10.45;64.51;100546.16;118191;1179;21972;-79
2021/11/05 11:44:12;;;;;;;8.80;6.10;;;;;;;10.51;64.44;100545.50;118477;1176;21878;-78
2021/11/05 11:46:59;;;;;;;8.00;4.80;;;;;;;10.58;64.39;100550.13;118492;1174;21847;-79
2021/11/05 11:50:01;;;;;;;11.40;5.60;;;;;;;10.61;64.09;100551.00;118575;1177;23422;-79
2021/11/05 11:52:41;;;;;;;7.00;5.50;;;;;;;10.65;64.07;100552.00;118511;1177;21888;-78
2021/11/05 11:55:22;;;;;;;5.00;4.30;;;;;;;10.66;63.45;100558.08;118542;1178;22890;-78
2021/11/05 11:58:17;;;;;;;7.70;4.20;;;;;;;10.65;63.38;100557.67;118645;1177;21873;-79
2021/11/05 12:00:52;;;;;;;6.10;4.70;;;;;;;10.62;63.03;100564.29;118677;1174;21886;-79
2021/11/05 12:03:26;;;;;;;6.10;3.70;;;;;;;10.58;63.08;100572.06;118622;1177;22169;-79
2021/11/05 12:06:01;;;;;;;10.10;4.00;;;;;;;10.54;62.96;100575.16;118551;1177;21868;-79
2021/11/05 12:08:45;;;;;;;7.30;4.40;;;;;;;10.49;63.08;100579.61;118669;1177;21908;-79
2021/11/05 12:11:29;;;;;;;3.90;3.40;;;;;;;10.46;63.14;100586.63;118697;1176;21888;-78
2021/11/05 12:14:11;;;;;;;6.80;4.10;;;;;;;10.39;62.98;100588.92;118970;1176;23530;-79
2021/11/05 12:17:15;;;;;;;4.70;3.70;;;;;;;10.27;63.06;100589.24;118792;1176;21871;-78
2021/11/05 12:19:51;;;;;;;5.60;3.70;;;;;;;10.20;63.27;100594.08;118368;1179;23427;-78
2021/11/05 12:22:27;;;;;;;12.40;5.90;;;;;;;10.16;63.54;100599.70;118268;1179;22259;-78
2021/11/05 12:25:19;;;;;;;6.20;5.00;;;;;;;10.15;63.84;100600.33;118241;1179;22072;-78
2021/11/05 12:28:25;;;;;;;8.10;5.50;;;;;;;10.12;64.01;100601.47;118300;1179;22832;-77
2021/11/05 12:31:27;;;;;;;6.10;4.70;;;;;;;10.09;64.19;100607.43;118711;1176;23951;-78
2021/11/05 12:34:24;;;;;;;6.80;5.90;;;;;;;10.06;64.30;100612.50;118548;1175;23521;-78
2021/11/05 12:36:59;;;;;;;7.50;5.60;;;;;;;10.02;64.49;100619.14;118724;1175;21902;-78
2021/11/05 12:39:39;;;;;;;8.00;5.50;;;;;;;10.01;64.44;100622.08;118299;1178;22106;-78
2021/11/05 12:42:20;;;;;;;6.60;4.80;;;;;;;9.98;64.48;100622.33;117914;1180;21867;-78
2021/11/05 12:45:16;;;;;;;9.20;5.40;;;;;;;9.96;64.78;100624.80;117876;1181;21882;-78